sensor_id;sensor_type;location;lat;lon;timestamp;P1;durP1;ratioP1;P2;durP2;ratioP2
41546;SDS011;27271;45.412;10.852;2024-03-07T00:03:06;10.10;;;5.93;;
41546;SDS011;27271;45.412;10.852;2024-03-07T00:06:29;9.93;;;5.40;;
41546;SDS011;27271;45.412;10.852;2024-03-07T00:09:51;9.88;;;5.82;;
41546;SDS011;27271;45.412;10.852;2024-03-07T00:13:17;8.43;;;5.22;;
41546;SDS011;27271;45.412;10.852;2024-03-07T00:16:42;9.25;;;5.15;;
41546;SDS011;27271;45.412;10.852;2024-03-07T00:20:04;10.30;;;5.57;;
41546;SDS011;27271;45.412;10.852;2024-03-07T00:23:31;11.15;;;5.80;;
41546;SDS011;27271;45.412;10.852;2024-03-07T00:26:54;11.23;;;6.15;;
41546;SDS011;27271;45.412;10.852;2024-03-07T00:30:16;12.35;;;6.47;;
41546;SDS011;27271;45.412;10.852;2024-03-07T00:33:40;9.50;;;6.18;;
41546;SDS011;27271;45.412;10.852;2024-03-07T00:37:23;13.45;;;6.85;;
41546;SDS011;27271;45.412;10.852;2024-03-07T00:40:48;9.70;;;6.10;;
41546;SDS011;27271;45.412;10.852;2024-03-07T00:44:10;11.82;;;6.30;;
41546;SDS011;27271;45.412;10.852;2024-03-07T00:47:32;10.93;;;6.72;;
41546;SDS011;27271;45.412;10.852;2024-03-07T00:50:55;12.25;;;7.07;;
41546;SDS011;27271;45.412;10.852;2024-03-07T00:54:17;11.55;;;6.45;;
41546;SDS011;27271;45.412;10.852;2024-03-07T00:57:39;14.35;;;7.20;;
41546;SDS011;27271;45.412;10.852;2024-03-07T01:01:02;13.07;;;7.00;;
41546;SDS011;27271;45.412;10.852;2024-03-07T01:04:25;12.70;;;7.50;;
41546;SDS011;27271;45.412;10.852;2024-03-07T01:07:52;12.15;;;6.30;;
41546;SDS011;27271;45.412;10.852;2024-03-07T01:11:14;12.05;;;6.97;;
41546;SDS011;27271;45.412;10.852;2024-03-07T01:14:36;12.88;;;7.75;;
41546;SDS011;27271;45.412;10.852;2024-03-07T01:17:59;15.52;;;8.02;;
41546;SDS011;27271;45.412;10.852;2024-03-07T01:21:21;13.48;;;7.15;;
41546;SDS011;27271;45.412;10.852;2024-03-07T01:24:46;13.07;;;7.25;;
41546;SDS011;27271;45.412;10.852;2024-03-07T01:28:09;14.50;;;8.27;;
41546;SDS011;27271;45.412;10.852;2024-03-07T01:31:34;14.07;;;8.45;;
41546;SDS011;27271;45.412;10.852;2024-03-07T01:34:56;13.38;;;8.00;;
41546;SDS011;27271;45.412;10.852;2024-03-07T01:38:18;15.90;;;8.43;;
41546;SDS011;27271;45.412;10.852;2024-03-07T01:41:41;14.75;;;8.18;;
41546;SDS011;27271;45.412;10.852;2024-03-07T01:45:03;14.57;;;8.65;;
41546;SDS011;27271;45.412;10.852;2024-03-07T01:48:28;12.77;;;8.10;;
41546;SDS011;27271;45.412;10.852;2024-03-07T01:51:53;18.00;;;9.82;;
41546;SDS011;27271;45.412;10.852;2024-03-07T01:55:16;17.48;;;9.10;;
41546;SDS011;27271;45.412;10.852;2024-03-07T01:58:38;17.02;;;9.88;;
41546;SDS011;27271;45.412;10.852;2024-03-07T02:02:02;17.92;;;9.70;;
41546;SDS011;27271;45.412;10.852;2024-03-07T02:05:24;18.02;;;10.30;;
41546;SDS011;27271;45.412;10.852;2024-03-07T02:08:46;19.38;;;10.13;;
41546;SDS011;27271;45.412;10.852;2024-03-07T02:12:09;24.35;;;10.48;;
41546;SDS011;27271;45.412;10.852;2024-03-07T02:15:32;18.83;;;10.07;;
41546;SDS011;27271;45.412;10.852;2024-03-07T02:18:54;26.55;;;11.13;;
41546;SDS011;27271;45.412;10.852;2024-03-07T02:22:17;20.98;;;10.52;;
41546;SDS011;27271;45.412;10.852;2024-03-07T02:25:39;21.27;;;10.40;;
41546;SDS011;27271;45.412;10.852;2024-03-07T02:29:02;21.85;;;11.45;;
41546;SDS011;27271;45.412;10.852;2024-03-07T02:32:24;17.65;;;10.70;;
41546;SDS011;27271;45.412;10.852;2024-03-07T02:35:48;18.15;;;11.25;;
41546;SDS011;27271;45.412;10.852;2024-03-07T02:39:10;19.65;;;11.60;;
41546;SDS011;27271;45.412;10.852;2024-03-07T02:42:33;20.35;;;11.75;;
41546;SDS011;27271;45.412;10.852;2024-03-07T02:45:56;22.63;;;12.50;;
41546;SDS011;27271;45.412;10.852;2024-03-07T02:49:21;19.33;;;11.65;;
41546;SDS011;27271;45.412;10.852;2024-03-07T02:52:43;23.67;;;11.85;;
41546;SDS011;27271;45.412;10.852;2024-03-07T02:56:06;25.98;;;12.95;;
41546;SDS011;27271;45.412;10.852;2024-03-07T02:59:31;20.23;;;11.77;;
41546;SDS011;27271;45.412;10.852;2024-03-07T03:02:53;24.70;;;12.05;;
41546;SDS011;27271;45.412;10.852;2024-03-07T03:06:18;23.52;;;12.07;;
41546;SDS011;27271;45.412;10.852;2024-03-07T03:09:43;24.15;;;12.05;;
41546;SDS011;27271;45.412;10.852;2024-03-07T03:13:06;23.70;;;13.23;;
41546;SDS011;27271;45.412;10.852;2024-03-07T03:16:28;24.85;;;14.13;;
41546;SDS011;27271;45.412;10.852;2024-03-07T03:20:08;30.38;;;14.77;;
41546;SDS011;27271;45.412;10.852;2024-03-07T03:23:40;29.40;;;15.07;;
41546;SDS011;27271;45.412;10.852;2024-03-07T03:27:03;28.02;;;14.27;;
41546;SDS011;27271;45.412;10.852;2024-03-07T03:30:27;24.13;;;14.07;;
41546;SDS011;27271;45.412;10.852;2024-03-07T03:33:54;28.30;;;13.80;;
41546;SDS011;27271;45.412;10.852;2024-03-07T03:37:19;25.92;;;14.18;;
41546;SDS011;27271;45.412;10.852;2024-03-07T03:40:41;26.48;;;13.32;;
41546;SDS011;27271;45.412;10.852;2024-03-07T03:44:04;27.92;;;12.75;;
41546;SDS011;27271;45.412;10.852;2024-03-07T03:47:27;24.73;;;14.00;;
41546;SDS011;27271;45.412;10.852;2024-03-07T03:50:50;21.95;;;12.85;;
41546;SDS011;27271;45.412;10.852;2024-03-07T03:54:12;26.00;;;12.77;;
41546;SDS011;27271;45.412;10.852;2024-03-07T03:57:34;19.90;;;11.68;;
41546;SDS011;27271;45.412;10.852;2024-03-07T04:00:59;19.17;;;11.43;;
41546;SDS011;27271;45.412;10.852;2024-03-07T04:04:22;23.30;;;12.25;;
41546;SDS011;27271;45.412;10.852;2024-03-07T04:07:47;21.20;;;11.65;;
41546;SDS011;27271;45.412;10.852;2024-03-07T04:11:10;22.38;;;12.18;;
41546;SDS011;27271;45.412;10.852;2024-03-07T04:14:32;18.80;;;10.38;;
41546;SDS011;27271;45.412;10.852;2024-03-07T04:17:55;21.17;;;11.77;;
41546;SDS011;27271;45.412;10.852;2024-03-07T04:21:18;20.40;;;10.00;;
41546;SDS011;27271;45.412;10.852;2024-03-07T04:24:40;17.77;;;9.65;;
41546;SDS011;27271;45.412;10.852;2024-03-07T04:28:03;20.40;;;11.23;;
41546;SDS011;27271;45.412;10.852;2024-03-07T04:31:26;19.35;;;10.68;;
41546;SDS011;27271;45.412;10.852;2024-03-07T04:34:49;19.00;;;10.57;;
41546;SDS011;27271;45.412;10.852;2024-03-07T04:38:11;20.23;;;10.73;;
41546;SDS011;27271;45.412;10.852;2024-03-07T04:41:37;23.80;;;12.35;;
41546;SDS011;27271;45.412;10.852;2024-03-07T04:44:59;21.38;;;11.93;;
41546;SDS011;27271;45.412;10.852;2024-03-07T04:48:23;21.88;;;11.60;;
41546;SDS011;27271;45.412;10.852;2024-03-07T04:51:45;22.88;;;11.98;;
41546;SDS011;27271;45.412;10.852;2024-03-07T04:55:08;26.80;;;12.70;;
41546;SDS011;27271;45.412;10.852;2024-03-07T04:58:32;25.13;;;12.75;;
41546;SDS011;27271;45.412;10.852;2024-03-07T05:01:54;22.63;;;12.95;;
41546;SDS011;27271;45.412;10.852;2024-03-07T05:05:16;29.52;;;14.48;;
41546;SDS011;27271;45.412;10.852;2024-03-07T05:08:47;26.13;;;13.70;;
41546;SDS011;27271;45.412;10.852;2024-03-07T05:12:09;26.98;;;14.65;;
41546;SDS011;27271;45.412;10.852;2024-03-07T05:15:32;30.15;;;15.18;;
41546;SDS011;27271;45.412;10.852;2024-03-07T05:18:56;27.02;;;15.00;;
41546;SDS011;27271;45.412;10.852;2024-03-07T05:22:20;26.80;;;15.35;;
41546;SDS011;27271;45.412;10.852;2024-03-07T05:25:47;28.20;;;15.73;;
41546;SDS011;27271;45.412;10.852;2024-03-07T05:29:11;28.02;;;15.68;;
41546;SDS011;27271;45.412;10.852;2024-03-07T05:32:33;26.25;;;15.65;;
41546;SDS011;27271;45.412;10.852;2024-03-07T05:35:56;31.13;;;17.00;;
41546;SDS011;27271;45.412;10.852;2024-03-07T05:39:35;27.40;;;15.60;;
41546;SDS011;27271;45.412;10.852;2024-03-07T05:42:57;31.15;;;16.95;;
41546;SDS011;27271;45.412;10.852;2024-03-07T05:46:21;26.65;;;16.65;;
41546;SDS011;27271;45.412;10.852;2024-03-07T05:49:44;32.33;;;17.77;;
41546;SDS011;27271;45.412;10.852;2024-03-07T05:53:06;37.42;;;20.30;;
41546;SDS011;27271;45.412;10.852;2024-03-07T05:56:30;35.17;;;21.33;;
41546;SDS011;27271;45.412;10.852;2024-03-07T05:59:52;37.40;;;21.23;;
41546;SDS011;27271;45.412;10.852;2024-03-07T06:03:17;38.85;;;22.40;;
41546;SDS011;27271;45.412;10.852;2024-03-07T06:06:43;38.28;;;22.77;;
41546;SDS011;27271;45.412;10.852;2024-03-07T06:10:06;42.20;;;24.00;;
41546;SDS011;27271;45.412;10.852;2024-03-07T06:13:32;37.85;;;22.52;;
41546;SDS011;27271;45.412;10.852;2024-03-07T06:16:54;41.70;;;24.33;;
41546;SDS011;27271;45.412;10.852;2024-03-07T06:20:18;39.63;;;23.13;;
41546;SDS011;27271;45.412;10.852;2024-03-07T06:23:46;45.10;;;24.00;;
41546;SDS011;27271;45.412;10.852;2024-03-07T06:27:09;62.25;;;33.38;;
41546;SDS011;27271;45.412;10.852;2024-03-07T06:30:38;44.10;;;26.30;;
41546;SDS011;27271;45.412;10.852;2024-03-07T06:34:04;125.05;;;63.55;;
41546;SDS011;27271;45.412;10.852;2024-03-07T06:37:27;71.13;;;40.83;;
41546;SDS011;27271;45.412;10.852;2024-03-07T06:40:49;45.80;;;27.17;;
41546;SDS011;27271;45.412;10.852;2024-03-07T06:44:11;52.67;;;29.90;;
41546;SDS011;27271;45.412;10.852;2024-03-07T06:47:34;42.65;;;24.75;;
41546;SDS011;27271;45.412;10.852;2024-03-07T06:50:56;39.85;;;24.27;;
41546;SDS011;27271;45.412;10.852;2024-03-07T06:54:19;39.65;;;21.17;;
41546;SDS011;27271;45.412;10.852;2024-03-07T06:57:43;33.80;;;20.65;;
41546;SDS011;27271;45.412;10.852;2024-03-07T07:01:10;29.08;;;17.63;;
41546;SDS011;27271;45.412;10.852;2024-03-07T07:04:36;31.40;;;16.83;;
41546;SDS011;27271;45.412;10.852;2024-03-07T07:08:06;30.00;;;16.25;;
41546;SDS011;27271;45.412;10.852;2024-03-07T07:11:28;31.88;;;15.32;;
41546;SDS011;27271;45.412;10.852;2024-03-07T07:14:55;23.33;;;13.93;;
41546;SDS011;27271;45.412;10.852;2024-03-07T07:18:18;23.90;;;13.98;;
41546;SDS011;27271;45.412;10.852;2024-03-07T07:21:40;27.05;;;14.93;;
41546;SDS011;27271;45.412;10.852;2024-03-07T07:25:04;25.42;;;15.43;;
41546;SDS011;27271;45.412;10.852;2024-03-07T07:28:26;26.70;;;14.10;;
41546;SDS011;27271;45.412;10.852;2024-03-07T07:31:48;25.33;;;14.60;;
41546;SDS011;27271;45.412;10.852;2024-03-07T07:35:11;19.90;;;11.35;;
41546;SDS011;27271;45.412;10.852;2024-03-07T07:38:34;22.98;;;12.55;;
41546;SDS011;27271;45.412;10.852;2024-03-07T07:41:57;21.92;;;14.40;;
41546;SDS011;27271;45.412;10.852;2024-03-07T07:45:21;23.10;;;14.57;;
41546;SDS011;27271;45.412;10.852;2024-03-07T07:48:44;22.88;;;13.98;;
41546;SDS011;27271;45.412;10.852;2024-03-07T07:52:06;14.93;;;10.68;;
41546;SDS011;27271;45.412;10.852;2024-03-07T07:55:30;9.82;;;6.53;;
41546;SDS011;27271;45.412;10.852;2024-03-07T07:58:52;7.10;;;4.53;;
41546;SDS011;27271;45.412;10.852;2024-03-07T08:02:14;5.75;;;3.00;;
41546;SDS011;27271;45.412;10.852;2024-03-07T08:05:37;7.68;;;3.53;;
41546;SDS011;27271;45.412;10.852;2024-03-07T08:09:00;5.07;;;3.17;;
41546;SDS011;27271;45.412;10.852;2024-03-07T08:12:22;5.18;;;2.75;;
41546;SDS011;27271;45.412;10.852;2024-03-07T08:15:48;10.93;;;3.10;;
41546;SDS011;27271;45.412;10.852;2024-03-07T08:19:10;5.22;;;2.90;;
41546;SDS011;27271;45.412;10.852;2024-03-07T08:22:32;3.72;;;2.47;;
41546;SDS011;27271;45.412;10.852;2024-03-07T08:25:57;6.05;;;2.58;;
41546;SDS011;27271;45.412;10.852;2024-03-07T08:29:20;6.30;;;3.30;;
41546;SDS011;27271;45.412;10.852;2024-03-07T08:32:43;6.10;;;3.70;;
41546;SDS011;27271;45.412;10.852;2024-03-07T08:36:11;4.00;;;3.03;;
41546;SDS011;27271;45.412;10.852;2024-03-07T08:39:33;7.82;;;3.88;;
41546;SDS011;27271;45.412;10.852;2024-03-07T08:42:56;8.70;;;3.58;;
41546;SDS011;27271;45.412;10.852;2024-03-07T08:46:19;6.65;;;3.45;;
41546;SDS011;27271;45.412;10.852;2024-03-07T08:49:41;3.97;;;3.30;;
41546;SDS011;27271;45.412;10.852;2024-03-07T08:53:03;6.93;;;4.13;;
41546;SDS011;27271;45.412;10.852;2024-03-07T08:56:26;7.93;;;3.65;;
41546;SDS011;27271;45.412;10.852;2024-03-07T08:59:49;7.35;;;4.25;;
41546;SDS011;27271;45.412;10.852;2024-03-07T09:03:11;6.13;;;4.18;;
41546;SDS011;27271;45.412;10.852;2024-03-07T09:06:34;10.27;;;4.57;;
41546;SDS011;27271;45.412;10.852;2024-03-07T09:09:57;7.22;;;4.75;;
41546;SDS011;27271;45.412;10.852;2024-03-07T09:13:19;7.38;;;4.20;;
41546;SDS011;27271;45.412;10.852;2024-03-07T09:16:41;9.23;;;4.70;;
41546;SDS011;27271;45.412;10.852;2024-03-07T09:20:05;8.32;;;4.53;;
41546;SDS011;27271;45.412;10.852;2024-03-07T09:23:32;7.63;;;3.33;;
41546;SDS011;27271;45.412;10.852;2024-03-07T09:26:54;6.68;;;3.65;;
41546;SDS011;27271;45.412;10.852;2024-03-07T09:30:18;4.55;;;3.47;;
41546;SDS011;27271;45.412;10.852;2024-03-07T09:33:46;7.15;;;5.47;;
41546;SDS011;27271;45.412;10.852;2024-03-07T09:37:09;6.45;;;3.70;;
41546;SDS011;27271;45.412;10.852;2024-03-07T09:40:31;8.75;;;4.43;;
41546;SDS011;27271;45.412;10.852;2024-03-07T09:43:57;6.85;;;3.88;;
41546;SDS011;27271;45.412;10.852;2024-03-07T09:47:21;5.97;;;3.60;;
41546;SDS011;27271;45.412;10.852;2024-03-07T09:50:44;4.75;;;3.30;;
41546;SDS011;27271;45.412;10.852;2024-03-07T09:54:08;6.20;;;4.07;;
41546;SDS011;27271;45.412;10.852;2024-03-07T09:57:31;10.38;;;5.68;;
41546;SDS011;27271;45.412;10.852;2024-03-07T10:00:56;8.27;;;5.63;;
41546;SDS011;27271;45.412;10.852;2024-03-07T10:04:42;10.27;;;6.70;;
41546;SDS011;27271;45.412;10.852;2024-03-07T10:08:06;10.25;;;6.28;;
41546;SDS011;27271;45.412;10.852;2024-03-07T10:11:29;11.13;;;7.38;;
41546;SDS011;27271;45.412;10.852;2024-03-07T10:14:54;10.95;;;6.88;;
41546;SDS011;27271;45.412;10.852;2024-03-07T10:18:21;11.93;;;7.20;;
41546;SDS011;27271;45.412;10.852;2024-03-07T10:21:45;13.27;;;7.00;;
41546;SDS011;27271;45.412;10.852;2024-03-07T10:25:10;14.15;;;6.97;;
41546;SDS011;27271;45.412;10.852;2024-03-07T10:28:32;11.40;;;6.25;;
41546;SDS011;27271;45.412;10.852;2024-03-07T10:31:55;12.65;;;6.28;;
41546;SDS011;27271;45.412;10.852;2024-03-07T10:35:26;10.30;;;6.47;;
41546;SDS011;27271;45.412;10.852;2024-03-07T10:38:51;11.57;;;6.10;;
41546;SDS011;27271;45.412;10.852;2024-03-07T10:42:17;9.32;;;6.03;;
41546;SDS011;27271;45.412;10.852;2024-03-07T10:45:44;8.55;;;5.93;;
41546;SDS011;27271;45.412;10.852;2024-03-07T10:49:08;8.75;;;5.55;;
41546;SDS011;27271;45.412;10.852;2024-03-07T10:52:39;8.68;;;5.68;;
41546;SDS011;27271;45.412;10.852;2024-03-07T10:59:41;12.07;;;6.15;;
41546;SDS011;27271;45.412;10.852;2024-03-07T11:03:11;9.13;;;4.47;;
41546;SDS011;27271;45.412;10.852;2024-03-07T11:06:33;8.35;;;4.60;;
41546;SDS011;27271;45.412;10.852;2024-03-07T11:09:55;6.85;;;4.13;;
41546;SDS011;27271;45.412;10.852;2024-03-07T11:13:19;7.68;;;4.28;;
41546;SDS011;27271;45.412;10.852;2024-03-07T11:16:43;8.98;;;4.93;;
41546;SDS011;27271;45.412;10.852;2024-03-07T11:20:23;8.30;;;5.40;;
41546;SDS011;27271;45.412;10.852;2024-03-07T11:23:46;8.70;;;4.75;;
41546;SDS011;27271;45.412;10.852;2024-03-07T11:27:09;6.88;;;4.32;;
41546;SDS011;27271;45.412;10.852;2024-03-07T11:30:35;6.82;;;4.43;;
41546;SDS011;27271;45.412;10.852;2024-03-07T11:34:13;8.05;;;4.97;;
41546;SDS011;27271;45.412;10.852;2024-03-07T11:37:44;9.23;;;4.80;;
41546;SDS011;27271;45.412;10.852;2024-03-07T11:41:10;7.18;;;5.28;;
41546;SDS011;27271;45.412;10.852;2024-03-07T11:44:35;12.75;;;4.80;;
41546;SDS011;27271;45.412;10.852;2024-03-07T11:48:01;7.00;;;4.18;;
41546;SDS011;27271;45.412;10.852;2024-03-07T11:51:31;5.80;;;3.75;;
41546;SDS011;27271;45.412;10.852;2024-03-07T11:54:56;8.02;;;4.03;;
41546;SDS011;27271;45.412;10.852;2024-03-07T11:58:26;6.85;;;3.33;;
41546;SDS011;27271;45.412;10.852;2024-03-07T12:01:53;7.90;;;3.47;;
41546;SDS011;27271;45.412;10.852;2024-03-07T12:05:16;7.80;;;4.55;;
41546;SDS011;27271;45.412;10.852;2024-03-07T12:08:38;7.43;;;4.43;;
41546;SDS011;27271;45.412;10.852;2024-03-07T12:12:03;8.27;;;5.22;;
41546;SDS011;27271;45.412;10.852;2024-03-07T12:15:27;6.60;;;4.88;;
41546;SDS011;27271;45.412;10.852;2024-03-07T12:18:52;8.43;;;4.65;;
41546;SDS011;27271;45.412;10.852;2024-03-07T12:22:18;5.88;;;3.97;;
41546;SDS011;27271;45.412;10.852;2024-03-07T12:25:47;7.15;;;4.50;;
41546;SDS011;27271;45.412;10.852;2024-03-07T12:29:10;6.75;;;3.97;;
41546;SDS011;27271;45.412;10.852;2024-03-07T12:32:33;4.57;;;3.15;;
41546;SDS011;27271;45.412;10.852;2024-03-07T12:35:56;11.20;;;3.60;;
41546;SDS011;27271;45.412;10.852;2024-03-07T12:39:28;9.50;;;4.10;;
41546;SDS011;27271;45.412;10.852;2024-03-07T12:42:56;6.97;;;4.15;;
41546;SDS011;27271;45.412;10.852;2024-03-07T12:46:19;6.82;;;4.28;;
41546;SDS011;27271;45.412;10.852;2024-03-07T12:49:41;8.32;;;3.92;;
41546;SDS011;27271;45.412;10.852;2024-03-07T12:53:07;7.25;;;4.20;;
41546;SDS011;27271;45.412;10.852;2024-03-07T12:56:33;5.88;;;4.05;;
41546;SDS011;27271;45.412;10.852;2024-03-07T12:59:56;7.13;;;4.28;;
41546;SDS011;27271;45.412;10.852;2024-03-07T13:03:18;7.22;;;4.32;;
41546;SDS011;27271;45.412;10.852;2024-03-07T13:06:41;7.70;;;4.00;;
41546;SDS011;27271;45.412;10.852;2024-03-07T13:10:08;5.53;;;3.92;;
41546;SDS011;27271;45.412;10.852;2024-03-07T13:13:31;6.25;;;4.15;;
41546;SDS011;27271;45.412;10.852;2024-03-07T13:16:53;9.40;;;4.72;;
41546;SDS011;27271;45.412;10.852;2024-03-07T13:20:16;6.88;;;5.00;;
41546;SDS011;27271;45.412;10.852;2024-03-07T13:23:44;6.85;;;4.35;;
41546;SDS011;27271;45.412;10.852;2024-03-07T13:27:06;7.43;;;4.20;;
41546;SDS011;27271;45.412;10.852;2024-03-07T13:30:36;5.63;;;4.20;;
41546;SDS011;27271;45.412;10.852;2024-03-07T13:33:58;7.05;;;4.35;;
41546;SDS011;27271;45.412;10.852;2024-03-07T13:37:23;7.68;;;4.65;;
41546;SDS011;27271;45.412;10.852;2024-03-07T13:40:47;8.65;;;4.38;;
41546;SDS011;27271;45.412;10.852;2024-03-07T13:44:11;7.10;;;5.07;;
41546;SDS011;27271;45.412;10.852;2024-03-07T13:47:35;5.90;;;4.60;;
41546;SDS011;27271;45.412;10.852;2024-03-07T13:50:57;10.20;;;5.22;;
41546;SDS011;27271;45.412;10.852;2024-03-07T13:54:22;6.63;;;4.75;;
41546;SDS011;27271;45.412;10.852;2024-03-07T13:58:11;10.30;;;4.93;;
41546;SDS011;27271;45.412;10.852;2024-03-07T14:12:21;9.25;;;5.32;;
41546;SDS011;27271;45.412;10.852;2024-03-07T14:16:21;9.73;;;4.70;;
41546;SDS011;27271;45.412;10.852;2024-03-07T14:30:37;7.65;;;5.13;;
41546;SDS011;27271;45.412;10.852;2024-03-07T14:37:55;8.18;;;5.38;;
41546;SDS011;27271;45.412;10.852;2024-03-07T14:45:30;8.05;;;5.07;;
41546;SDS011;27271;45.412;10.852;2024-03-07T14:48:57;9.23;;;5.57;;
41546;SDS011;27271;45.412;10.852;2024-03-07T14:52:20;9.00;;;4.80;;
41546;SDS011;27271;45.412;10.852;2024-03-07T14:55:43;10.38;;;5.03;;
41546;SDS011;27271;45.412;10.852;2024-03-07T14:59:05;8.55;;;4.72;;
41546;SDS011;27271;45.412;10.852;2024-03-07T15:02:27;9.35;;;5.85;;
41546;SDS011;27271;45.412;10.852;2024-03-07T15:05:49;10.60;;;5.13;;
41546;SDS011;27271;45.412;10.852;2024-03-07T15:09:13;12.25;;;5.40;;
41546;SDS011;27271;45.412;10.852;2024-03-07T15:12:36;10.07;;;5.15;;
41546;SDS011;27271;45.412;10.852;2024-03-07T15:15:59;9.15;;;5.45;;
41546;SDS011;27271;45.412;10.852;2024-03-07T15:19:21;7.88;;;5.43;;
41546;SDS011;27271;45.412;10.852;2024-03-07T15:22:44;6.95;;;5.13;;
41546;SDS011;27271;45.412;10.852;2024-03-07T15:26:08;10.20;;;5.10;;
41546;SDS011;27271;45.412;10.852;2024-03-07T15:29:30;10.48;;;5.30;;
41546;SDS011;27271;45.412;10.852;2024-03-07T15:32:53;9.88;;;5.68;;
41546;SDS011;27271;45.412;10.852;2024-03-07T15:36:15;7.90;;;5.32;;
41546;SDS011;27271;45.412;10.852;2024-03-07T15:39:39;10.30;;;6.07;;
41546;SDS011;27271;45.412;10.852;2024-03-07T15:43:09;8.52;;;5.55;;
41546;SDS011;27271;45.412;10.852;2024-03-07T15:46:33;9.32;;;5.22;;
41546;SDS011;27271;45.412;10.852;2024-03-07T15:49:55;11.80;;;5.50;;
41546;SDS011;27271;45.412;10.852;2024-03-07T15:53:19;10.88;;;5.90;;
41546;SDS011;27271;45.412;10.852;2024-03-07T15:56:41;14.73;;;6.05;;
41546;SDS011;27271;45.412;10.852;2024-03-07T16:00:04;11.25;;;6.43;;
41546;SDS011;27271;45.412;10.852;2024-03-07T16:03:32;8.20;;;5.30;;
41546;SDS011;27271;45.412;10.852;2024-03-07T16:06:54;8.88;;;5.35;;
41546;SDS011;27271;45.412;10.852;2024-03-07T16:10:20;10.70;;;5.90;;
41546;SDS011;27271;45.412;10.852;2024-03-07T16:13:46;8.68;;;5.20;;
41546;SDS011;27271;45.412;10.852;2024-03-07T16:17:10;10.95;;;5.95;;
41546;SDS011;27271;45.412;10.852;2024-03-07T16:20:33;10.45;;;6.03;;
41546;SDS011;27271;45.412;10.852;2024-03-07T16:23:56;9.35;;;5.72;;
41546;SDS011;27271;45.412;10.852;2024-03-07T16:27:18;10.20;;;5.65;;
41546;SDS011;27271;45.412;10.852;2024-03-07T16:30:40;10.82;;;5.03;;
41546;SDS011;27271;45.412;10.852;2024-03-07T16:34:06;8.82;;;5.70;;
41546;SDS011;27271;45.412;10.852;2024-03-07T16:37:29;9.82;;;5.93;;
41546;SDS011;27271;45.412;10.852;2024-03-07T16:40:54;10.88;;;6.35;;
41546;SDS011;27271;45.412;10.852;2024-03-07T16:44:17;10.00;;;5.50;;
41546;SDS011;27271;45.412;10.852;2024-03-07T16:47:39;8.23;;;5.50;;
41546;SDS011;27271;45.412;10.852;2024-03-07T16:51:02;16.90;;;6.40;;
41546;SDS011;27271;45.412;10.852;2024-03-07T16:54:25;12.15;;;5.88;;
41546;SDS011;27271;45.412;10.852;2024-03-07T16:57:48;9.77;;;5.60;;
41546;SDS011;27271;45.412;10.852;2024-03-07T17:01:12;11.15;;;5.97;;
41546;SDS011;27271;45.412;10.852;2024-03-07T17:04:34;10.73;;;6.47;;
41546;SDS011;27271;45.412;10.852;2024-03-07T17:07:57;12.10;;;6.40;;
41546;SDS011;27271;45.412;10.852;2024-03-07T17:11:22;12.40;;;7.30;;
41546;SDS011;27271;45.412;10.852;2024-03-07T17:14:45;11.18;;;7.82;;
41546;SDS011;27271;45.412;10.852;2024-03-07T17:18:07;14.90;;;9.45;;
41546;SDS011;27271;45.412;10.852;2024-03-07T17:21:35;24.88;;;13.48;;
41546;SDS011;27271;45.412;10.852;2024-03-07T17:24:58;14.00;;;8.85;;
41546;SDS011;27271;45.412;10.852;2024-03-07T17:28:21;11.98;;;7.63;;
41546;SDS011;27271;45.412;10.852;2024-03-07T17:31:43;18.20;;;7.43;;
41546;SDS011;27271;45.412;10.852;2024-03-07T17:35:09;12.68;;;7.60;;
41546;SDS011;27271;45.412;10.852;2024-03-07T17:38:32;16.80;;;8.60;;
41546;SDS011;27271;45.412;10.852;2024-03-07T17:41:55;19.42;;;9.43;;
41546;SDS011;27271;45.412;10.852;2024-03-07T17:45:18;18.60;;;9.15;;
41546;SDS011;27271;45.412;10.852;2024-03-07T17:48:43;25.27;;;9.40;;
41546;SDS011;27271;45.412;10.852;2024-03-07T17:52:06;19.00;;;10.40;;
41546;SDS011;27271;45.412;10.852;2024-03-07T17:55:34;21.17;;;10.15;;
41546;SDS011;27271;45.412;10.852;2024-03-07T17:58:57;23.40;;;9.18;;
41546;SDS011;27271;45.412;10.852;2024-03-07T18:02:19;19.40;;;9.40;;
41546;SDS011;27271;45.412;10.852;2024-03-07T18:05:42;18.58;;;9.02;;
41546;SDS011;27271;45.412;10.852;2024-03-07T18:09:15;21.60;;;10.07;;
41546;SDS011;27271;45.412;10.852;2024-03-07T18:12:50;17.58;;;9.43;;
41546;SDS011;27271;45.412;10.852;2024-03-07T18:16:14;17.95;;;9.75;;
41546;SDS011;27271;45.412;10.852;2024-03-07T18:19:36;18.60;;;9.23;;
41546;SDS011;27271;45.412;10.852;2024-03-07T18:22:59;21.13;;;10.65;;
41546;SDS011;27271;45.412;10.852;2024-03-07T18:26:22;18.10;;;9.85;;
41546;SDS011;27271;45.412;10.852;2024-03-07T18:29:44;20.10;;;9.43;;
41546;SDS011;27271;45.412;10.852;2024-03-07T18:33:07;21.00;;;9.55;;
41546;SDS011;27271;45.412;10.852;2024-03-07T18:36:30;18.75;;;10.00;;
41546;SDS011;27271;45.412;10.852;2024-03-07T18:39:52;19.63;;;9.75;;
41546;SDS011;27271;45.412;10.852;2024-03-07T18:43:16;17.48;;;10.30;;
41546;SDS011;27271;45.412;10.852;2024-03-07T18:46:39;21.75;;;11.18;;
41546;SDS011;27271;45.412;10.852;2024-03-07T18:50:01;22.45;;;10.82;;
41546;SDS011;27271;45.412;10.852;2024-03-07T18:53:24;23.15;;;11.05;;
41546;SDS011;27271;45.412;10.852;2024-03-07T18:56:46;21.17;;;10.68;;
41546;SDS011;27271;45.412;10.852;2024-03-07T19:00:13;22.33;;;11.05;;
41546;SDS011;27271;45.412;10.852;2024-03-07T19:03:49;22.00;;;10.82;;
41546;SDS011;27271;45.412;10.852;2024-03-07T19:07:11;21.60;;;10.93;;
41546;SDS011;27271;45.412;10.852;2024-03-07T19:10:34;20.77;;;10.20;;
41546;SDS011;27271;45.412;10.852;2024-03-07T19:13:56;21.98;;;11.13;;
41546;SDS011;27271;45.412;10.852;2024-03-07T19:17:18;20.92;;;10.77;;
41546;SDS011;27271;45.412;10.852;2024-03-07T19:20:40;22.92;;;10.80;;
41546;SDS011;27271;45.412;10.852;2024-03-07T19:24:04;21.85;;;11.63;;
41546;SDS011;27271;45.412;10.852;2024-03-07T19:27:27;23.50;;;11.90;;
41546;SDS011;27271;45.412;10.852;2024-03-07T19:30:51;27.40;;;12.45;;
41546;SDS011;27271;45.412;10.852;2024-03-07T19:34:13;28.10;;;12.50;;
41546;SDS011;27271;45.412;10.852;2024-03-07T19:37:42;19.40;;;11.23;;
41546;SDS011;27271;45.412;10.852;2024-03-07T19:41:13;23.40;;;12.23;;
41546;SDS011;27271;45.412;10.852;2024-03-07T19:44:38;22.52;;;11.35;;
41546;SDS011;27271;45.412;10.852;2024-03-07T19:48:01;22.23;;;11.52;;
41546;SDS011;27271;45.412;10.852;2024-03-07T19:51:25;21.33;;;11.18;;
41546;SDS011;27271;45.412;10.852;2024-03-07T19:54:47;25.67;;;12.10;;
41546;SDS011;27271;45.412;10.852;2024-03-07T19:58:10;22.23;;;11.32;;
41546;SDS011;27271;45.412;10.852;2024-03-07T20:01:34;22.58;;;12.38;;
41546;SDS011;27271;45.412;10.852;2024-03-07T20:05:00;24.08;;;12.10;;
41546;SDS011;27271;45.412;10.852;2024-03-07T20:08:22;20.20;;;12.05;;
41546;SDS011;27271;45.412;10.852;2024-03-07T20:11:49;27.88;;;12.75;;
41546;SDS011;27271;45.412;10.852;2024-03-07T20:15:13;26.65;;;13.02;;
41546;SDS011;27271;45.412;10.852;2024-03-07T20:18:38;26.63;;;12.90;;
41546;SDS011;27271;45.412;10.852;2024-03-07T20:22:01;23.35;;;11.93;;
41546;SDS011;27271;45.412;10.852;2024-03-07T20:25:24;22.20;;;11.88;;
41546;SDS011;27271;45.412;10.852;2024-03-07T20:28:49;27.50;;;12.00;;